Time;durP1;ratioP1;P1;durP2;ratioP2;P2;SDS_P1;SDS_P2;PMS_P1;PMS_P2;Temp;Humidity;BMP_temperature;BMP_pressure;BME280_temperature;BME280_humidity;BME280_pressure;Samples;Min_cycle;Max_cycle;Signal;HPM_P1;HPM_P2
2023/03/14 00:02:25;;;;;;;8.13;1.80;;;11.40;99.90;;;;;;4972585;28;20696;-54
2023/03/14 00:04:55;;;;;;;7.40;1.90;;;11.50;99.90;;;;;;4981671;28;20035;-54
2023/03/14 00:07:20;;;;;;;6.47;1.73;;;11.60;99.90;;;;;;4969978;28;20395;-55
2023/03/14 00:09:46;;;;;;;8.57;2.00;;;11.60;99.90;;;;;;4973517;28;20039;-55
2023/03/14 00:12:14;;;;;;;4.65;1.67;;;11.60;99.90;;;;;;4975447;28;20114;-54
2023/03/14 00:14:41;;;;;;;7.78;2.10;;;11.60;99.90;;;;;;4974607;28;20090;-54
2023/03/14 00:17:06;;;;;;;10.45;2.00;;;11.60;99.90;;;;;;4978081;28;20038;-53
2023/03/14 00:19:32;;;;;;;7.60;1.88;;;11.70;99.90;;;;;;4968728;28;20039;-54
2023/03/14 00:21:57;;;;;;;7.70;1.77;;;11.80;99.90;;;;;;4971646;28;20042;-54
2023/03/14 00:24:23;;;;;;;10.75;2.17;;;11.90;99.90;;;;;;4976497;28;20038;-54
2023/03/14 00:26:48;;;;;;;7.88;2.20;;;11.70;99.90;;;;;;4977573;28;20085;-54
2023/03/14 00:29:14;;;;;;;7.45;1.95;;;11.60;99.90;;;;;;4957198;28;20034;-55
2023/03/14 00:31:40;;;;;;;8.35;1.80;;;11.50;99.90;;;;;;4972482;28;20455;-54
2023/03/14 00:34:06;;;;;;;6.28;1.80;;;11.30;99.90;;;;;;4967112;28;20030;-54
2023/03/14 00:36:31;;;;;;;6.03;1.60;;;11.20;99.90;;;;;;4957355;28;20398;-54
2023/03/14 00:38:57;;;;;;;6.05;1.50;;;11.20;99.90;;;;;;4961587;28;20504;-54
2023/03/14 00:41:23;;;;;;;9.43;1.70;;;11.10;99.90;;;;;;4970700;28;20038;-53
2023/03/14 00:43:50;;;;;;;6.97;1.90;;;10.90;99.90;;;;;;4974291;28;20054;-54
2023/03/14 00:46:16;;;;;;;7.22;1.40;;;10.80;99.90;;;;;;4978718;28;20494;-54
2023/03/14 00:48:41;;;;;;;4.20;1.27;;;10.80;99.90;;;;;;4977156;28;20138;-52
2023/03/14 00:51:09;;;;;;;6.60;1.70;;;10.80;99.90;;;;;;4979863;28;20117;-53
2023/03/14 00:53:38;;;;;;;8.20;1.52;;;10.80;99.90;;;;;;4969605;28;20101;-54
2023/03/14 00:56:06;;;;;;;5.93;1.55;;;10.60;99.90;;;;;;4976830;28;20030;-54
2023/03/14 00:58:32;;;;;;;6.05;1.63;;;10.70;99.90;;;;;;4983436;28;20045;-54
2023/03/14 01:00:58;;;;;;;6.10;1.55;;;10.60;99.90;;;;;;4974249;28;20034;-54
2023/03/14 01:03:24;;;;;;;7.57;1.17;;;10.70;99.90;;;;;;4976011;28;20058;-52
2023/03/14 01:05:50;;;;;;;10.07;1.83;;;10.70;99.90;;;;;;4969572;28;20130;-54
2023/03/14 01:08:16;;;;;;;5.25;1.20;;;10.60;99.90;;;;;;4974091;28;20039;-53
2023/03/14 01:10:42;;;;;;;5.38;1.38;;;10.70;99.90;;;;;;4969354;28;20050;-54
2023/03/14 01:13:08;;;;;;;7.43;1.58;;;10.70;99.90;;;;;;4981091;28;20406;-53
2023/03/14 01:15:35;;;;;;;6.03;1.80;;;10.60;99.90;;;;;;4974616;28;20134;-54
2023/03/14 01:18:01;;;;;;;5.90;1.25;;;10.60;99.90;;;;;;4979933;28;20034;-54
2023/03/14 01:20:27;;;;;;;7.50;1.30;;;10.50;99.90;;;;;;4977549;28;20613;-53
2023/03/14 01:22:52;;;;;;;5.60;1.27;;;10.50;99.90;;;;;;4983578;28;20034;-54
2023/03/14 01:25:18;;;;;;;6.18;1.60;;;10.50;99.90;;;;;;4975350;28;20045;-54
2023/03/14 01:27:44;;;;;;;5.88;1.38;;;10.40;99.90;;;;;;4981620;28;20045;-53
2023/03/14 01:30:11;;;;;;;6.18;1.30;;;10.30;99.90;;;;;;4977926;28;20053;-54
2023/03/14 01:32:37;;;;;;;7.63;1.30;;;10.30;99.90;;;;;;4969593;28;20035;-54
2023/03/14 01:35:03;;;;;;;6.22;1.20;;;10.30;99.90;;;;;;4978228;28;20041;-54
2023/03/14 01:37:29;;;;;;;6.22;1.02;;;10.30;99.90;;;;;;4977372;28;20110;-54
2023/03/14 01:39:55;;;;;;;5.03;1.30;;;10.20;99.90;;;;;;4979172;28;20675;-53
2023/03/14 01:42:20;;;;;;;3.92;1.00;;;10.10;99.90;;;;;;4979246;28;20047;-54
2023/03/14 01:45:04;;;;;;;6.50;1.85;;;10.30;99.90;;;;;;4978090;28;20039;-53
2023/03/14 01:47:30;;;;;;;7.72;1.30;;;10.10;99.90;;;;;;4977620;28;20141;-53
2023/03/14 01:50:01;;;;;;;4.57;1.08;;;10.20;99.90;;;;;;4978803;28;20237;-54
2023/03/14 01:52:35;;;;;;;7.15;1.60;;;10.20;99.90;;;;;;4982211;28;20845;-54
2023/03/14 01:55:07;;;;;;;5.05;1.08;;;10.20;99.90;;;;;;4981102;28;20558;-53
2023/03/14 01:57:40;;;;;;;6.15;1.20;;;10.20;99.90;;;;;;4975676;28;20035;-54
2023/03/14 02:00:13;;;;;;;8.98;1.70;;;10.40;99.90;;;;;;4970337;28;20038;-53
2023/03/14 02:02:46;;;;;;;7.20;1.05;;;10.40;99.90;;;;;;4977883;28;20031;-54
2023/03/14 02:05:15;;;;;;;4.72;0.88;;;10.30;99.90;;;;;;4981468;28;20030;-54
2023/03/14 02:07:51;;;;;;;6.80;1.48;;;10.30;99.90;;;;;;4976019;28;20066;-54
2023/03/14 02:10:19;;;;;;;6.00;1.08;;;10.40;99.90;;;;;;4985452;28;20107;-54
2023/03/14 02:12:46;;;;;;;5.78;1.33;;;10.30;99.90;;;;;;4974463;28;20035;-54
2023/03/14 02:15:12;;;;;;;8.38;1.48;;;10.40;99.90;;;;;;4982801;28;20046;-54
2023/03/14 02:17:40;;;;;;;8.32;1.77;;;10.40;99.90;;;;;;4978291;28;20038;-54
2023/03/14 02:20:18;;;;;;;6.38;1.50;;;10.30;99.90;;;;;;4974879;28;20042;-54
2023/03/14 02:22:45;;;;;;;6.90;1.48;;;10.30;99.90;;;;;;4977954;28;20483;-54
2023/03/14 02:25:23;;;;;;;6.53;1.48;;;10.40;99.90;;;;;;4975320;28;20486;-54
2023/03/14 02:27:49;;;;;;;10.07;1.77;;;10.40;99.90;;;;;;4982390;28;20042;-53
2023/03/14 02:30:20;;;;;;;6.63;1.50;;;10.50;99.90;;;;;;4980737;28;20078;-53
2023/03/14 02:32:53;;;;;;;6.93;1.40;;;10.40;99.90;;;;;;4972196;28;20376;-53
2023/03/14 02:35:23;;;;;;;6.55;1.65;;;10.30;99.90;;;;;;4959734;28;20034;-54
2023/03/14 02:38:29;;;;;;;8.80;1.40;;;10.20;99.90;;;;;;4977643;28;20047;-55
2023/03/14 02:40:55;;;;;;;6.70;1.42;;;10.20;99.90;;;;;;4889257;29;20552;-53
2023/03/14 02:43:20;;;;;;;9.75;1.83;;;10.20;99.90;;;;;;4953157;28;20065;-53
2023/03/14 02:45:47;;;;;;;7.13;1.58;;;10.30;99.90;;;;;;4976864;28;20043;-54
2023/03/14 02:48:25;;;;;;;9.13;1.75;;;10.20;99.90;;;;;;4981338;28;20038;-54
2023/03/14 02:50:55;;;;;;;6.32;1.48;;;10.40;99.90;;;;;;4982302;28;20035;-54
2023/03/14 02:53:25;;;;;;;13.88;1.73;;;10.30;99.90;;;;;;4981850;28;20038;-54
2023/03/14 02:55:51;;;;;;;7.97;1.70;;;10.30;99.90;;;;;;4972835;28;20540;-55
2023/03/14 02:58:18;;;;;;;8.50;1.95;;;10.30;99.90;;;;;;4973687;28;20071;-54
2023/03/14 03:00:43;;;;;;;10.30;1.83;;;10.30;99.90;;;;;;4982917;28;20489;-54
2023/03/14 03:03:09;;;;;;;10.13;1.95;;;10.30;99.90;;;;;;4976391;28;20043;-54
2023/03/14 03:05:35;;;;;;;8.00;1.90;;;10.30;99.90;;;;;;4978897;28;20129;-54
2023/03/14 03:08:00;;;;;;;8.52;1.65;;;10.20;99.90;;;;;;4976611;28;20042;-54
2023/03/14 03:10:27;;;;;;;7.10;1.90;;;10.20;99.90;;;;;;4980452;28;20494;-54
2023/03/14 03:12:53;;;;;;;8.02;1.67;;;10.20;99.90;;;;;;4971589;28;20097;-54
2023/03/14 03:15:19;;;;;;;6.45;1.67;;;10.20;99.90;;;;;;4975816;28;20035;-54
2023/03/14 03:17:44;;;;;;;10.75;2.13;;;10.20;99.90;;;;;;4977213;28;20039;-54
2023/03/14 03:20:10;;;;;;;8.98;1.77;;;10.30;99.90;;;;;;4976332;28;20031;-54
2023/03/14 03:22:37;;;;;;;9.55;1.60;;;10.30;99.90;;;;;;4976699;28;20570;-54
2023/03/14 03:25:04;;;;;;;9.75;1.85;;;10.30;99.90;;;;;;4974486;28;20054;-54
2023/03/14 03:27:31;;;;;;;8.73;1.80;;;10.30;99.90;;;;;;4980543;28;20641;-54
2023/03/14 03:29:57;;;;;;;8.10;1.77;;;10.30;99.90;;;;;;4974045;28;20038;-54
2023/03/14 03:32:23;;;;;;;8.73;2.15;;;10.40;99.90;;;;;;4973824;28;20039;-54
2023/03/14 03:34:48;;;;;;;7.88;1.60;;;10.30;99.90;;;;;;4978110;28;20502;-54
2023/03/14 03:37:14;;;;;;;8.00;1.60;;;10.30;99.90;;;;;;4973384;28;20097;-54
2023/03/14 03:39:40;;;;;;;11.18;2.25;;;10.40;99.90;;;;;;4971663;28;20031;-54
2023/03/14 03:42:05;;;;;;;8.65;1.70;;;10.30;99.90;;;;;;4972506;28;20030;-55
2023/03/14 03:44:31;;;;;;;9.77;1.70;;;10.30;99.90;;;;;;4976091;28;20098;-54
2023/03/14 03:46:56;;;;;;;6.47;1.90;;;10.20;99.90;;;;;;4975423;28;20098;-54
2023/03/14 03:49:22;;;;;;;11.35;1.83;;;10.20;99.90;;;;;;4967728;28;20126;-54
2023/03/14 03:51:47;;;;;;;8.63;1.92;;;10.10;99.90;;;;;;4978965;28;20038;-54
2023/03/14 03:54:13;;;;;;;8.82;1.98;;;10.20;99.90;;;;;;4963347;28;20038;-55
2023/03/14 03:56:38;;;;;;;10.93;2.17;;;10.10;99.90;;;;;;4981430;28;20027;-54
2023/03/14 03:59:04;;;;;;;8.18;2.10;;;10.20;99.90;;;;;;4983384;28;20053;-54
2023/03/14 04:01:30;;;;;;;10.07;2.03;;;10.20;99.90;;;;;;4985461;28;20406;-54
2023/03/14 04:03:55;;;;;;;9.52;2.28;;;10.20;99.90;;;;;;4987127;28;20046;-54
2023/03/14 04:06:21;;;;;;;8.52;1.70;;;10.20;99.90;;;;;;4977211;28;20446;-53
2023/03/14 04:08:46;;;;;;;6.93;1.55;;;10.10;99.90;;;;;;4972008;28;20050;-54
2023/03/14 04:11:12;;;;;;;6.63;1.52;;;10.20;99.90;;;;;;4978426;28;20118;-54
2023/03/14 04:13:37;;;;;;;9.90;1.77;;;10.10;99.90;;;;;;4973053;28;20034;-55
2023/03/14 04:16:03;;;;;;;6.05;1.33;;;10.00;99.90;;;;;;4984751;28;20038;-53
2023/03/14 04:18:30;;;;;;;8.23;1.30;;;10.00;99.90;;;;;;4980663;28;20058;-53
2023/03/14 04:20:56;;;;;;;6.25;1.40;;;9.80;99.90;;;;;;4988384;28;20030;-51
2023/03/14 04:23:24;;;;;;;7.03;1.67;;;9.70;99.90;;;;;;4974946;28;20126;-55
2023/03/14 04:25:50;;;;;;;4.93;1.30;;;9.70;99.90;;;;;;4985060;28;20037;-54
2023/03/14 04:28:16;;;;;;;7.43;1.45;;;9.70;99.90;;;;;;4971428;28;20041;-54
2023/03/14 04:30:41;;;;;;;4.25;1.20;;;9.70;99.90;;;;;;4980308;28;20486;-54
2023/03/14 04:33:07;;;;;;;5.80;1.33;;;9.80;99.90;;;;;;4970042;28;20038;-53
2023/03/14 04:35:33;;;;;;;6.15;1.20;;;9.90;99.90;;;;;;4981628;28;20031;-53
2023/03/14 04:37:59;;;;;;;3.33;1.33;;;9.90;99.90;;;;;;4974799;28;20062;-53
2023/03/14 04:40:25;;;;;;;4.97;1.10;;;9.90;99.90;;;;;;4978688;28;20410;-54
2023/03/14 04:42:51;;;;;;;4.63;1.15;;;9.80;99.90;;;;;;4982255;28;20037;-53
2023/03/14 04:45:16;;;;;;;2.45;0.90;;;9.80;99.90;;;;;;4978719;28;20042;-54
2023/03/14 04:47:42;;;;;;;3.08;0.90;;;9.90;99.90;;;;;;4976271;28;20410;-54
2023/03/14 04:50:09;;;;;;;5.47;0.90;;;9.90;99.90;;;;;;4977572;28;20033;-54
2023/03/14 04:52:34;;;;;;;4.82;1.40;;;9.80;99.90;;;;;;4979493;28;20039;-54
2023/03/14 04:55:00;;;;;;;5.13;1.10;;;9.70;99.90;;;;;;4975467;28;20753;-54
2023/03/14 04:57:26;;;;;;;3.17;1.13;;;9.80;99.90;;;;;;4970800;28;20957;-54
2023/03/14 04:59:51;;;;;;;5.40;1.13;;;9.60;99.90;;;;;;4979605;28;20067;-54
2023/03/14 05:02:17;;;;;;;7.32;1.20;;;9.60;99.90;;;;;;4972468;28;20043;-55
2023/03/14 05:04:42;;;;;;;4.57;1.10;;;9.60;99.90;;;;;;4971672;28;20035;-54
2023/03/14 05:07:08;;;;;;;3.53;1.00;;;9.70;99.90;;;;;;4970512;28;20104;-53
2023/03/14 05:09:33;;;;;;;4.25;0.75;;;9.70;99.90;;;;;;4970645;28;20146;-54
2023/03/14 05:11:59;;;;;;;3.10;0.75;;;9.70;99.90;;;;;;4974901;28;20057;-54
2023/03/14 05:14:24;;;;;;;4.95;1.13;;;9.80;99.90;;;;;;4975024;28;20034;-54
2023/03/14 05:16:50;;;;;;;1.73;0.60;;;9.90;99.90;;;;;;4977891;28;20039;-55
2023/03/14 05:19:15;;;;;;;3.28;0.70;;;9.80;99.90;;;;;;4977458;28;20035;-54
2023/03/14 05:21:41;;;;;;;4.05;1.10;;;9.80;99.90;;;;;;4984979;28;20061;-54
2023/03/14 05:24:07;;;;;;;2.28;0.70;;;9.80;99.90;;;;;;4979984;28;20037;-53
2023/03/14 05:26:32;;;;;;;2.90;0.73;;;9.70;99.90;;;;;;4982694;28;20050;-55
2023/03/14 05:28:58;;;;;;;2.17;1.10;;;9.60;99.90;;;;;;4979916;28;20097;-54
2023/03/14 05:31:23;;;;;;;4.47;0.85;;;9.60;99.90;;;;;;4978265;28;20469;-54
2023/03/14 05:33:49;;;;;;;3.53;0.80;;;9.50;99.90;;;;;;4977410;28;20142;-54
2023/03/14 05:36:15;;;;;;;4.15;1.13;;;9.40;99.90;;;;;;4983076;28;20061;-54
2023/03/14 05:38:40;;;;;;;3.38;0.88;;;9.50;99.90;;;;;;4956406;28;20446;-53
2023/03/14 05:41:06;;;;;;;2.88;1.00;;;9.40;99.90;;;;;;4969670;28;20130;-54
2023/03/14 05:43:31;;;;;;;3.30;0.85;;;9.30;99.90;;;;;;4981433;28;20038;-53
2023/03/14 05:45:57;;;;;;;2.08;1.00;;;9.40;99.90;;;;;;4983451;28;20042;-54
2023/03/14 05:48:23;;;;;;;3.55;1.30;;;9.40;99.90;;;;;;4979856;28;20703;-53
2023/03/14 05:50:55;;;;;;;4.25;1.20;;;9.40;99.90;;;;;;4979256;28;20414;-55
2023/03/14 05:53:20;;;;;;;3.22;1.27;;;9.40;99.90;;;;;;4986570;28;20081;-53
2023/03/14 05:55:46;;;;;;;2.38;1.10;;;9.50;99.90;;;;;;4986042;28;20066;-54
2023/03/14 05:58:11;;;;;;;3.10;1.20;;;9.40;99.90;;;;;;4983572;28;20072;-54
2023/03/14 06:00:37;;;;;;;2.65;1.10;;;9.40;99.90;;;;;;4977023;28;20046;-54
2023/03/14 06:03:03;;;;;;;2.33;0.80;;;9.40;99.90;;;;;;4979366;28;20194;-54
2023/03/14 06:05:28;;;;;;;3.13;0.77;;;9.50;99.90;;;;;;4980539;28;20043;-53
2023/03/14 06:07:54;;;;;;;3.70;0.90;;;9.50;99.90;;;;;;4976193;28;20047;-53
2023/03/14 06:10:19;;;;;;;2.00;0.70;;;9.50;99.90;;;;;;4980850;28;20039;-53
2023/03/14 06:12:45;;;;;;;2.22;0.60;;;9.60;99.90;;;;;;4978504;28;20034;-53
2023/03/14 06:15:10;;;;;;;1.33;0.55;;;9.60;99.90;;;;;;4974608;28;20144;-53
2023/03/14 06:17:36;;;;;;;4.45;1.02;;;9.80;99.90;;;;;;4974485;28;20086;-52
2023/03/14 06:20:04;;;;;;;1.85;0.68;;;9.80;99.90;;;;;;4976957;28;20054;-51
2023/03/14 06:22:30;;;;;;;1.33;0.70;;;9.90;99.90;;;;;;4977873;28;20422;-53
2023/03/14 06:24:55;;;;;;;2.08;0.68;;;9.90;99.90;;;;;;4975270;28;20038;-52
2023/03/14 06:27:21;;;;;;;1.63;0.60;;;10.00;99.90;;;;;;4976557;28;20046;-52
2023/03/14 06:29:46;;;;;;;0.80;0.60;;;10.00;99.90;;;;;;4976807;28;20121;-53
2023/03/14 06:32:12;;;;;;;2.03;0.60;;;9.90;99.90;;;;;;4969021;28;20039;-52
2023/03/14 06:34:38;;;;;;;2.55;0.90;;;9.80;99.90;;;;;;4969979;28;20082;-53
2023/03/14 06:37:04;;;;;;;1.02;0.60;;;9.90;99.90;;;;;;4963732;28;20034;-52
2023/03/14 06:39:31;;;;;;;3.17;0.73;;;9.90;99.90;;;;;;4971532;28;20027;-53
2023/03/14 06:41:56;;;;;;;1.05;0.68;;;9.90;99.90;;;;;;4981780;28;20069;-51
2023/03/14 06:44:22;;;;;;;0.60;0.50;;;10.00;99.90;;;;;;4981206;28;20031;-54
2023/03/14 06:46:48;;;;;;;1.67;0.60;;;10.00;99.90;;;;;;4979468;28;20038;-54
2023/03/14 06:49:13;;;;;;;1.08;0.60;;;10.10;99.90;;;;;;4975985;28;20034;-54
2023/03/14 06:51:39;;;;;;;2.85;0.80;;;10.10;99.90;;;;;;4978923;28;20634;-54
2023/03/14 06:54:04;;;;;;;1.42;0.50;;;10.10;99.90;;;;;;4987538;28;20393;-54
2023/03/14 06:56:30;;;;;;;1.30;0.63;;;10.10;99.90;;;;;;4974550;28;20682;-54
2023/03/14 06:58:56;;;;;;;1.52;0.60;;;10.10;99.90;;;;;;4976453;28;20042;-52
2023/03/14 07:01:25;;;;;;;2.03;0.50;;;10.00;99.90;;;;;;4973208;28;20066;-53
2023/03/14 07:03:51;;;;;;;1.35;0.60;;;10.00;99.90;;;;;;4979112;28;20049;-54
2023/03/14 07:06:16;;;;;;;1.02;0.63;;;10.10;99.90;;;;;;4975535;28;20027;-54
2023/03/14 07:08:42;;;;;;;3.70;0.80;;;10.00;99.90;;;;;;4974901;28;20070;-51
2023/03/14 07:11:10;;;;;;;3.00;0.98;;;10.10;99.90;;;;;;4979798;28;20042;-54
2023/03/14 07:13:39;;;;;;;1.85;0.80;;;10.10;99.90;;;;;;4972971;28;20122;-54
2023/03/14 07:16:06;;;;;;;1.10;0.90;;;10.20;99.90;;;;;;4972647;28;20121;-53
2023/03/14 07:18:32;;;;;;;1.35;0.90;;;10.30;99.90;;;;;;4977099;28;20470;-53
2023/03/14 07:20:57;;;;;;;2.20;1.27;;;10.40;99.90;;;;;;4979747;28;20065;-53
2023/03/14 07:23:23;;;;;;;1.88;1.20;;;10.40;99.90;;;;;;4974727;28;20027;-54
2023/03/14 07:25:48;;;;;;;1.88;1.20;;;10.40;99.90;;;;;;4977617;28;20125;-53
2023/03/14 07:28:14;;;;;;;3.33;1.15;;;10.40;99.90;;;;;;4972346;28;20042;-54
2023/03/14 07:30:40;;;;;;;1.95;1.17;;;10.40;99.90;;;;;;4973616;28;20118;-52
2023/03/14 07:33:05;;;;;;;1.30;1.20;;;10.30;99.90;;;;;;4973509;28;20122;-54
2023/03/14 07:35:31;;;;;;;3.53;1.30;;;10.40;99.90;;;;;;4972873;28;20120;-54
2023/03/14 07:37:56;;;;;;;2.20;1.40;;;10.40;99.90;;;;;;4976583;28;20066;-54
2023/03/14 07:40:22;;;;;;;2.80;1.60;;;10.40;99.90;;;;;;4973766;28;20073;-52
2023/03/14 07:42:49;;;;;;;2.05;1.45;;;10.40;99.90;;;;;;4971606;28;20043;-54
2023/03/14 07:45:15;;;;;;;1.98;1.77;;;10.60;99.90;;;;;;4974599;28;20040;-54
2023/03/14 07:47:40;;;;;;;2.38;1.90;;;10.60;99.90;;;;;;4981872;28;20512;-54
2023/03/14 07:50:06;;;;;;;3.13;2.08;;;10.60;99.90;;;;;;4986488;28;20027;-55
2023/03/14 07:52:32;;;;;;;3.55;2.10;;;10.60;99.90;;;;;;4980539;28;20459;-54
2023/03/14 07:54:57;;;;;;;3.20;2.50;;;10.70;99.90;;;;;;4973111;28;20080;-53
2023/03/14 07:57:24;;;;;;;3.40;2.40;;;10.70;99.90;;;;;;4986479;28;20042;-54
2023/03/14 07:59:49;;;;;;;2.65;2.22;;;10.50;99.90;;;;;;4970265;28;20035;-56
2023/03/14 08:02:16;;;;;;;2.42;2.22;;;10.60;99.90;;;;;;4969014;28;20039;-55
2023/03/14 08:04:41;;;;;;;3.30;2.53;;;10.70;99.90;;;;;;4967314;28;20524;-55
2023/03/14 08:07:07;;;;;;;3.72;2.35;;;10.80;99.90;;;;;;4970256;28;20039;-53
2023/03/14 08:09:33;;;;;;;3.05;2.75;;;10.90;99.90;;;;;;4969074;28;20039;-55
2023/03/14 08:11:58;;;;;;;4.72;2.83;;;10.90;99.90;;;;;;4971583;28;20030;-55
2023/03/14 08:14:24;;;;;;;3.45;3.10;;;11.00;99.90;;;;;;4967350;28;20416;-54
2023/03/14 08:16:50;;;;;;;3.42;3.08;;;11.10;99.90;;;;;;4975207;28;20034;-54
2023/03/14 08:19:15;;;;;;;4.05;3.10;;;11.00;99.90;;;;;;4964334;28;20499;-54
2023/03/14 08:21:41;;;;;;;3.70;2.85;;;11.00;99.90;;;;;;4965310;28;20050;-54
2023/03/14 08:24:07;;;;;;;3.08;2.78;;;11.00;99.90;;;;;;4969659;28;20031;-54
2023/03/14 08:26:33;;;;;;;3.35;2.95;;;11.00;99.90;;;;;;4973235;28;20609;-54
2023/03/14 08:28:58;;;;;;;4.55;2.58;;;11.00;99.90;;;;;;4970987;28;20117;-56
2023/03/14 08:31:24;;;;;;;5.57;2.47;;;11.00;99.90;;;;;;4970258;28;20376;-55
2023/03/14 08:33:51;;;;;;;3.63;2.72;;;11.00;99.90;;;;;;4971453;28;20166;-55
2023/03/14 08:36:18;;;;;;;4.90;2.60;;;11.00;99.90;;;;;;4970409;28;20568;-55
2023/03/14 08:38:43;;;;;;;3.75;2.80;;;10.90;99.90;;;;;;4967678;28;20058;-55
2023/03/14 08:41:10;;;;;;;3.85;2.40;;;11.00;99.90;;;;;;4977374;28;20088;-55
2023/03/14 08:43:36;;;;;;;3.40;2.17;;;10.90;99.90;;;;;;4969378;28;20035;-55
2023/03/14 08:46:02;;;;;;;3.75;2.35;;;10.90;99.90;;;;;;4967859;28;20098;-51
2023/03/14 08:48:29;;;;;;;4.63;2.00;;;10.80;99.90;;;;;;4961337;28;20088;-54
2023/03/14 08:51:16;;;;;;;3.35;1.65;;;10.70;99.90;;;;;;4968903;28;20795;-55
2023/03/14 08:53:42;;;;;;;3.05;1.80;;;10.70;99.90;;;;;;4967513;28;20038;-54
2023/03/14 08:56:09;;;;;;;2.30;1.60;;;10.70;99.90;;;;;;4964923;28;20490;-54
2023/03/14 08:58:38;;;;;;;4.90;1.70;;;10.80;99.90;;;;;;4960831;28;20039;-55
2023/03/14 09:01:08;;;;;;;4.00;1.95;;;10.90;99.90;;;;;;4969736;28;20119;-55
2023/03/14 09:03:34;;;;;;;0.63;0.50;;;10.80;99.90;;;;;;4968635;28;20577;-55
2023/03/14 09:06:05;;;;;;;2.22;0.30;;;9.90;99.90;;;;;;4974043;28;20070;-54
2023/03/14 09:08:31;;;;;;;0.30;0.30;;;9.30;99.90;;;;;;4941719;28;20890;-55
2023/03/14 09:10:56;;;;;;;2.10;0.77;;;9.10;99.90;;;;;;4940474;28;20047;-54
2023/03/14 09:13:22;;;;;;;2.50;0.98;;;9.10;99.90;;;;;;4936008;28;20040;-53
2023/03/14 09:15:52;;;;;;;2.55;1.15;;;9.30;99.90;;;;;;4941018;28;20895;-53
2023/03/14 09:18:17;;;;;;;2.60;0.82;;;8.90;99.90;;;;;;4937451;28;20047;-54
2023/03/14 09:20:43;;;;;;;0.75;0.70;;;9.00;99.90;;;;;;4941155;28;20048;-54
2023/03/14 09:23:08;;;;;;;2.17;0.82;;;8.90;99.90;;;;;;4938953;28;20040;-54
2023/03/14 09:25:34;;;;;;;1.15;0.70;;;8.80;99.90;;;;;;4946150;28;20040;-54
2023/03/14 09:27:59;;;;;;;2.05;0.70;;;8.70;99.90;;;;;;4944955;28;20036;-54
2023/03/14 09:30:25;;;;;;;1.77;0.88;;;8.70;99.90;;;;;;4940983;28;20081;-53
2023/03/14 09:32:51;;;;;;;1.33;0.85;;;8.80;99.90;;;;;;4939089;28;20040;-52
2023/03/14 09:35:16;;;;;;;6.03;1.30;;;8.70;99.90;;;;;;4932143;28;20054;-53
2023/03/14 09:37:42;;;;;;;1.85;1.15;;;9.00;99.90;;;;;;4936700;28;20062;-54
2023/03/14 09:40:19;;;;;;;1.63;1.13;;;9.00;99.90;;;;;;4921867;29;20039;-52
2023/03/14 09:42:49;;;;;;;3.08;1.40;;;9.00;99.90;;;;;;4936872;28;20750;-54
2023/03/14 09:45:27;;;;;;;2.40;1.60;;;9.00;99.90;;;;;;4940306;28;20066;-54
2023/03/14 09:47:54;;;;;;;2.15;1.65;;;8.80;99.90;;;;;;4939988;28;20035;-54
2023/03/14 09:50:19;;;;;;;2.55;1.77;;;8.60;99.90;;;;;;4940222;28;20039;-54
2023/03/14 09:53:04;;;;;;;3.05;2.75;;;8.80;99.90;;;;;;4944638;28;20039;-54
2023/03/14 09:55:30;;;;;;;4.60;2.70;;;8.80;99.90;;;;;;4969566;28;20045;-54
2023/03/14 09:58:02;;;;;;;2.95;2.38;;;8.80;99.90;;;;;;4971314;28;20054;-52
2023/03/14 10:00:31;;;;;;;5.20;2.80;;;8.80;99.90;;;;;;4945042;28;20045;-53
2023/03/14 10:03:15;;;;;;;4.13;3.15;;;8.80;99.90;;;;;;4972329;28;20438;-53
2023/03/14 10:05:41;;;;;;;3.58;2.72;;;9.00;99.90;;;;;;4970949;28;20961;-53
2023/03/14 10:08:11;;;;;;;2.75;2.35;;;9.10;99.90;;;;;;4974673;28;20050;-53
2023/03/14 10:10:36;;;;;;;4.22;1.95;;;9.00;99.90;;;;;;4972033;28;20042;-51
2023/03/14 10:13:15;;;;;;;3.63;2.53;;;8.80;99.90;;;;;;4971851;28;20504;-51
2023/03/14 10:15:41;;;;;;;3.13;2.17;;;8.80;99.90;;;;;;4970803;28;20126;-51
2023/03/14 10:18:12;;;;;;;4.60;1.90;;;8.70;99.90;;;;;;4954126;28;20980;-51
2023/03/14 10:20:41;;;;;;;5.47;2.30;;;8.70;99.90;;;;;;4973733;28;20410;-54
2023/03/14 10:23:24;;;;;;;2.30;2.10;;;8.80;99.90;;;;;;4971872;28;20039;-51
2023/03/14 10:26:05;;;;;;;4.22;1.98;;;8.70;99.90;;;;;;4978038;28;20079;-53
2023/03/14 10:28:37;;;;;;;3.90;1.73;;;8.40;99.90;;;;;;4972135;28;20070;-52
2023/03/14 10:31:03;;;;;;;3.88;2.35;;;8.30;99.90;;;;;;4971075;28;20030;-54
2023/03/14 10:33:34;;;;;;;4.18;2.75;;;8.20;99.90;;;;;;4968647;28;20050;-52
2023/03/14 10:36:22;;;;;;;3.53;1.30;;;8.10;99.90;;;;;;4979915;28;20094;-54
2023/03/14 10:38:48;;;;;;;6.28;2.70;;;7.80;99.90;;;;;;4953958;28;20051;-54
2023/03/14 10:41:26;;;;;;;4.30;1.90;;;7.70;99.90;;;;;;4951603;28;20045;-54
2023/03/14 10:43:56;;;;;;;3.28;1.17;;;7.60;99.90;;;;;;4969868;28;20443;-49
2023/03/14 10:46:25;;;;;;;4.07;1.60;;;7.50;99.90;;;;;;4969585;28;20053;-52
2023/03/14 10:48:52;;;;;;;4.32;0.90;;;7.50;99.90;;;;;;4952772;28;20131;-51
2023/03/14 10:51:27;;;;;;;5.07;1.70;;;7.50;99.90;;;;;;4947223;28;20537;-53
2023/03/14 10:54:12;;;;;;;3.00;1.35;;;7.60;99.90;;;;;;4969723;28;20118;-52
2023/03/14 10:56:38;;;;;;;3.00;1.30;;;7.50;99.90;;;;;;4939049;28;20071;-50
2023/03/14 10:59:11;;;;;;;4.13;1.30;;;7.40;99.90;;;;;;4944781;28;20117;-52
2023/03/14 11:01:58;;;;;;;3.85;0.82;;;7.40;99.90;;;;;;4947099;28;20506;-53
2023/03/14 11:04:42;;;;;;;2.13;0.75;;;7.30;99.90;;;;;;4962864;28;20118;-50
2023/03/14 11:07:16;;;;;;;1.95;0.80;;;7.20;99.90;;;;;;4964612;28;20494;-51
2023/03/14 11:10:03;;;;;;;2.97;1.20;;;7.20;99.90;;;;;;4974152;28;20122;-51
2023/03/14 11:13:07;;;;;;;8.10;3.20;;;7.30;99.90;;;;;;4972019;28;20043;-52
2023/03/14 11:15:42;;;;;;;3.72;1.30;;;7.30;99.90;;;;;;4967805;28;20136;-46
2023/03/14 11:18:25;;;;;;;5.47;2.10;;;7.60;99.90;;;;;;4968842;28;20720;-48
2023/03/14 11:21:06;;;;;;;2.30;0.90;;;7.70;99.90;;;;;;4969647;28;20616;-48
2023/03/14 11:24:00;;;;;;;4.93;1.75;;;7.80;99.90;;;;;;4965712;28;20441;-49
2023/03/14 11:26:42;;;;;;;2.47;0.95;;;7.60;99.90;;;;;;4973536;28;20031;-49
2023/03/14 11:29:20;;;;;;;7.30;0.88;;;7.90;99.90;;;;;;4972266;28;20476;-48
2023/03/14 11:31:46;;;;;;;5.45;1.20;;;7.70;99.90;;;;;;4969512;28;20082;-49
2023/03/14 11:34:34;;;;;;;5.60;2.08;;;7.60;99.90;;;;;;4970563;28;20034;-50
2023/03/14 11:37:05;;;;;;;2.35;0.88;;;7.70;99.90;;;;;;4969193;28;20045;-50
2023/03/14 11:39:44;;;;;;;2.42;0.80;;;7.70;99.90;;;;;;4967491;28;20039;-50
2023/03/14 11:42:14;;;;;;;3.67;1.10;;;7.40;99.90;;;;;;4968536;28;20038;-48
2023/03/14 11:44:43;;;;;;;4.13;1.20;;;7.50;99.90;;;;;;4972389;28;20039;-49
2023/03/14 11:47:24;;;;;;;3.28;0.95;;;7.60;99.90;;;;;;4970323;28;20054;-49
2023/03/14 11:50:05;;;;;;;2.15;0.57;;;7.50;99.90;;;;;;4956900;28;20389;-49
2023/03/14 11:55:56;;;;;;;6.13;0.95;;;7.60;99.90;;;;;;4921740;28;20793;-51
2023/03/14 11:58:31;;;;;;;4.25;0.93;;;7.60;99.90;;;;;;4959126;28;20034;-51
2023/03/14 12:01:00;;;;;;;5.50;1.02;;;7.80;99.90;;;;;;4966995;28;20100;-53
2023/03/14 12:03:40;;;;;;;4.20;1.00;;;7.80;99.90;;;;;;4968291;28;20058;-49
2023/03/14 12:06:46;;;;;;;5.82;1.15;;;7.80;99.90;;;;;;4968560;28;20030;-52
2023/03/14 12:09:13;;;;;;;4.10;1.08;;;7.90;99.90;;;;;;4972366;28;20560;-49
2023/03/14 12:11:50;;;;;;;10.10;1.77;;;7.90;99.90;;;;;;4970552;28;20050;-52
2023/03/14 12:14:20;;;;;;;4.32;1.30;;;7.90;99.90;;;;;;4954631;28;20046;-51
2023/03/14 12:16:50;;;;;;;8.32;1.23;;;8.10;99.90;;;;;;4954712;28;20058;-51
2023/03/14 12:19:19;;;;;;;5.13;1.08;;;8.20;99.90;;;;;;4957358;28;20380;-50
2023/03/14 12:21:50;;;;;;;7.45;1.50;;;8.20;99.90;;;;;;4950303;28;20043;-53
2023/03/14 12:24:23;;;;;;;3.88;1.08;;;8.10;99.90;;;;;;4955362;28;20038;-48
2023/03/14 12:27:00;;;;;;;7.55;1.33;;;8.00;99.90;;;;;;4957899;28;20043;-50
2023/03/14 12:29:26;;;;;;;6.93;1.13;;;7.80;99.90;;;;;;4954250;28;20126;-50
2023/03/14 12:32:01;;;;;;;6.60;1.15;;;7.70;99.90;;;;;;4951289;28;20035;-49
2023/03/14 12:34:47;;;;;;;3.10;0.90;;;7.30;99.90;;;;;;4944091;28;20043;-50
2023/03/14 12:37:23;;;;;;;6.57;1.08;;;6.70;99.90;;;;;;4939512;28;20673;-49
2023/03/14 12:40:18;;;;;;;6.15;1.48;;;6.30;99.90;;;;;;4945677;28;20085;-50
2023/03/14 12:43:03;;;;;;;10.48;1.73;;;6.30;99.90;;;;;;4969158;28;20495;-49
2023/03/14 12:45:36;;;;;;;10.32;2.10;;;6.50;99.90;;;;;;4965894;28;20043;-50
2023/03/14 12:48:14;;;;;;;16.25;2.28;;;6.50;99.90;;;;;;4971086;28;20750;-50
2023/03/14 12:51:02;;;;;;;16.80;3.88;;;6.80;99.90;;;;;;4968014;28;20562;-47
2023/03/14 12:53:58;;;;;;;13.68;2.10;;;6.80;99.90;;;;;;4969569;28;20057;-48
2023/03/14 12:56:53;;;;;;;14.30;2.08;;;6.80;99.90;;;;;;4965829;28;20039;-49
2023/03/14 12:59:30;;;;;;;12.05;2.65;;;7.10;99.90;;;;;;4967862;28;20597;-50
2023/03/14 13:02:11;;;;;;;15.27;2.70;;;7.10;99.90;;;;;;4971934;28;20050;-48
2023/03/14 13:04:47;;;;;;;20.23;2.90;;;7.20;99.90;;;;;;4973088;28;20156;-52